Time;durP1;ratioP1;P1;durP2;ratioP2;P2;SDS_P1;SDS_P2;PMS_P1;PMS_P2;Temp;Humidity;BMP_temperature;BMP_pressure;BME280_temperature;BME280_humidity;BME280_pressure;Samples;Min_cycle;Max_cycle;Signal;HPM_P1;HPM_P2
2023/01/12 00:01:41;;;;;;;49.33;34.25;;;179.70;2252.80;;;;;;5090566;28;20070;-67
2023/01/12 00:04:10;;;;;;;44.63;29.45;;;179.60;2252.80;;;;;;5090461;28;20046;-67
2023/01/12 00:06:36;;;;;;;54.80;36.75;;;179.50;2252.80;;;;;;5090734;28;20068;-68
2023/01/12 00:09:02;;;;;;;38.42;28.30;;;179.50;2252.80;;;;;;5088809;28;20097;-68
2023/01/12 00:11:28;;;;;;;35.42;23.88;;;179.40;2252.80;;;;;;5090195;28;20032;-72
2023/01/12 00:13:54;;;;;;;31.10;20.02;;;154.50;2252.80;;;;;;5090362;28;20421;-65
2023/01/12 00:16:34;;;;;;;106.00;56.85;;;154.40;2252.80;;;;;;5090101;28;20046;-66
2023/01/12 00:19:15;;;;;;;49.00;27.85;;;154.50;2252.80;;;;;;5090015;28;20035;-65
2023/01/12 00:24:17;;;;;;;179.90;95.28;;;154.50;2252.80;;;;;;5090240;28;20024;-64
2023/01/12 00:26:43;;;;;;;100.40;58.55;;;179.20;2252.80;;;;;;5090183;28;20020;-66
2023/01/12 00:29:09;;;;;;;235.68;120.97;;;179.20;2252.80;;;;;;5090076;28;20016;-65
2023/01/12 00:31:34;;;;;;;98.25;56.47;;;179.20;2252.80;;;;;;5090318;28;20025;-63
2023/01/12 00:34:00;;;;;;;118.85;64.78;;;179.30;2252.80;;;;;;5090373;28;20030;-63
2023/01/12 00:36:26;;;;;;;107.15;60.55;;;154.50;2252.80;;;;;;5089849;28;20115;-67
2023/01/12 00:38:52;;;;;;;70.63;47.95;;;154.50;2252.80;;;;;;5090023;28;20114;-64
2023/01/12 00:46:47;;;;;;;185.60;99.97;;;179.40;2252.80;;;;;;5093955;28;20104;-65
2023/01/12 00:49:14;;;;;;;120.72;69.10;;;179.40;2252.80;;;;;;5094226;28;20020;-63
2023/01/12 00:51:40;;;;;;;85.65;52.90;;;179.40;2252.80;;;;;;5093405;28;20111;-65
2023/01/12 00:54:07;;;;;;;71.47;44.53;;;179.40;2252.80;;;;;;5093506;28;20107;-64
2023/01/12 00:56:33;;;;;;;63.38;40.53;;;179.50;2252.80;;;;;;5093528;28;20020;-65
2023/01/12 00:58:59;;;;;;;58.45;40.58;;;179.50;2252.80;;;;;;5093437;28;20666;-65
2023/01/12 01:01:25;;;;;;;63.85;42.97;;;179.50;2252.80;;;;;;5093231;28;20534;-66
2023/01/12 01:03:51;;;;;;;58.08;39.22;;;179.50;2252.80;;;;;;5093252;28;20060;-65
2023/01/12 01:06:16;;;;;;;53.08;37.60;;;154.50;2252.80;;;;;;5092938;28;20081;-66
2023/01/12 01:08:42;;;;;;;52.22;35.83;;;179.20;2252.80;;;;;;5092901;28;20023;-65
2023/01/12 01:11:10;;;;;;;49.70;32.90;;;154.30;2252.80;;;;;;5093203;28;20461;-66
2023/01/12 01:13:39;;;;;;;43.35;28.02;;;154.10;2252.80;;;;;;5092903;28;20024;-67
2023/01/12 01:16:07;;;;;;;40.88;26.95;;;154.00;2252.80;;;;;;5093105;28;20042;-63
2023/01/12 01:18:33;;;;;;;38.22;27.65;;;154.10;2252.80;;;;;;5093009;28;20474;-64
2023/01/12 01:20:59;;;;;;;48.30;32.05;;;154.30;2252.80;;;;;;5092611;28;20016;-67
2023/01/12 01:23:26;;;;;;;56.85;38.13;;;154.50;2252.80;;;;;;5092744;28;20035;-64
2023/01/12 01:25:52;;;;;;;65.35;44.10;;;179.30;2252.80;;;;;;5092785;28;20028;-64
2023/01/12 01:28:18;;;;;;;64.60;43.67;;;179.20;2252.80;;;;;;5092629;28;20020;-63
2023/01/12 01:30:45;;;;;;;75.07;52.58;;;179.20;2252.80;;;;;;5092922;28;20028;-64
2023/01/12 01:33:12;;;;;;;61.20;44.15;;;154.50;2252.80;;;;;;5093134;28;20420;-63
2023/01/12 01:35:38;;;;;;;72.38;48.58;;;154.50;2252.80;;;;;;5092519;28;20028;-63
2023/01/12 01:38:04;;;;;;;77.50;53.05;;;154.30;2252.80;;;;;;5092913;28;20038;-63
2023/01/12 01:40:31;;;;;;;67.30;49.35;;;154.30;2252.80;;;;;;5092528;28;20056;-66
2023/01/12 01:42:57;;;;;;;81.95;54.30;;;154.40;2252.80;;;;;;5093091;28;20020;-64
2023/01/12 01:45:23;;;;;;;74.68;51.30;;;179.20;2252.80;;;;;;5092552;28;20028;-64
2023/01/12 01:47:52;;;;;;;74.47;49.50;;;179.30;2252.80;;;;;;5092618;28;20051;-63
2023/01/12 01:50:21;;;;;;;64.38;43.45;;;179.40;2252.80;;;;;;5092818;28;20020;-64
2023/01/12 01:52:55;;;;;;;65.35;43.33;;;179.40;2252.80;;;;;;5092679;28;20377;-67
2023/01/12 01:55:48;;;;;;;76.32;52.72;;;179.50;2252.80;;;;;;5092233;28;20049;-65
2023/01/12 01:58:21;;;;;;;78.63;55.53;;;179.40;2252.80;;;;;;5010600;28;20038;-65
2023/01/12 02:00:47;;;;;;;63.92;44.20;;;179.40;2252.80;;;;;;5010554;28;20267;-67
2023/01/12 02:03:15;;;;;;;50.78;36.45;;;179.40;2252.80;;;;;;5010520;28;20037;-67
2023/01/12 02:05:44;;;;;;;52.40;34.45;;;179.50;2252.80;;;;;;5010351;28;20484;-65
2023/01/12 02:08:28;;;;;;;37.78;25.30;;;179.60;2252.80;;;;;;5010285;28;20083;-67
2023/01/12 02:10:56;;;;;;;37.22;25.05;;;179.50;2252.80;;;;;;5010651;28;20037;-65
2023/01/12 02:16:22;;;;;;;45.50;29.02;;;179.50;2252.80;;;;;;5010424;28;20044;-66
2023/01/12 02:19:24;;;;;;;36.13;23.92;;;179.50;2252.80;;;;;;5010145;28;20463;-67
2023/01/12 02:22:31;;;;;;;34.05;23.23;;;179.50;2252.80;;;;;;5010112;28;20116;-65
2023/01/12 02:24:56;;;;;;;32.38;23.45;;;179.50;2252.80;;;;;;5009849;28;20092;-67
2023/01/12 02:27:31;;;;;;;36.75;24.48;;;179.40;2252.80;;;;;;5010276;28;20026;-65
2023/01/12 02:30:21;;;;;;;33.70;24.35;;;179.40;2252.80;;;;;;5009967;28;20534;-65
2023/01/12 02:33:30;;;;;;;30.70;21.67;;;179.50;2252.80;;;;;;5009933;28;20096;-66
2023/01/12 02:36:38;;;;;;;43.85;27.75;;;179.40;2252.80;;;;;;5056866;28;20959;-65
2023/01/12 02:39:28;;;;;;;70.40;36.65;;;179.40;2252.80;;;;;;5009531;28;20038;-67
2023/01/12 02:44:54;;;;;;;73.38;32.65;;;179.60;2252.80;;;;;;5012960;28;20065;-69
2023/01/12 02:47:48;;;;;;;48.78;27.42;;;179.50;2252.80;;;;;;5013479;28;20415;-66
2023/01/12 02:50:21;;;;;;;41.63;22.08;;;179.60;2252.80;;;;;;5014452;28;20034;-70
2023/01/12 02:52:56;;;;;;;40.85;23.88;;;179.50;2252.80;;;;;;5013092;28;20033;-67
2023/01/12 02:55:25;;;;;;;41.63;25.52;;;179.50;2252.80;;;;;;5009537;28;20032;-65
2023/01/12 02:57:53;;;;;;;54.75;31.90;;;179.60;2252.80;;;;;;5009654;28;20057;-68
2023/01/12 03:00:19;;;;;;;41.55;24.00;;;179.70;2252.80;;;;;;5009437;28;20542;-65
2023/01/12 03:02:45;;;;;;;44.38;23.05;;;179.70;2252.80;;;;;;4993113;28;20045;-64
2023/01/12 03:05:11;;;;;;;61.00;31.42;;;179.80;2252.80;;;;;;5009419;28;20053;-66
2023/01/12 03:07:57;;;;;;;38.42;23.10;;;179.70;2252.80;;;;;;5008824;28;20030;-66
2023/01/12 03:10:51;;;;;;;53.55;30.33;;;179.70;2252.80;;;;;;5009174;28;20373;-65
2023/01/12 03:13:19;;;;;;;43.67;26.58;;;179.60;2252.80;;;;;;5009304;28;20121;-66
2023/01/12 03:15:49;;;;;;;57.22;32.63;;;179.60;2252.80;;;;;;5039621;28;20026;-64
2023/01/12 03:18:23;;;;;;;56.95;33.38;;;179.70;2252.80;;;;;;5091473;28;20028;-63
2023/01/12 03:20:54;;;;;;;46.08;28.65;;;179.80;2252.80;;;;;;5091078;28;20473;-66
2023/01/12 03:23:26;;;;;;;29.70;19.52;;;179.70;2252.80;;;;;;5090907;28;20043;-66
2023/01/12 03:25:55;;;;;;;36.88;21.52;;;179.70;2252.80;;;;;;5091045;28;20036;-67
2023/01/12 03:28:25;;;;;;;32.15;20.58;;;179.70;2252.80;;;;;;5090983;28;20474;-65
2023/01/12 03:31:00;;;;;;;32.67;23.38;;;179.70;2252.80;;;;;;5090931;28;20130;-67
2023/01/12 03:33:26;;;;;;;53.17;32.92;;;179.70;2252.80;;;;;;5090989;28;20024;-66
2023/01/12 03:36:05;;;;;;;69.43;38.30;;;179.70;2252.80;;;;;;5090895;28;20016;-66
2023/01/12 03:39:06;;;;;;;55.25;34.28;;;179.70;2252.80;;;;;;5090689;28;20034;-67
2023/01/12 03:42:03;;;;;;;37.22;24.17;;;179.70;2252.80;;;;;;5091006;28;20047;-66
2023/01/12 03:44:52;;;;;;;36.97;19.55;;;179.50;2252.80;;;;;;5090581;28;20035;-67
2023/01/12 03:47:22;;;;;;;29.30;18.92;;;179.30;2252.80;;;;;;5090303;28;20048;-68
2023/01/12 03:49:59;;;;;;;33.90;21.00;;;179.40;2252.80;;;;;;5090548;28;20024;-68
2023/01/12 03:52:28;;;;;;;30.10;17.45;;;179.40;2252.80;;;;;;5090748;28;20107;-66
2023/01/12 03:54:55;;;;;;;30.83;17.60;;;179.30;2252.80;;;;;;5090582;28;20385;-65
2023/01/12 03:57:22;;;;;;;27.45;17.02;;;179.20;2252.80;;;;;;5090553;28;20032;-66
2023/01/12 03:59:48;;;;;;;27.40;16.35;;;154.50;2252.80;;;;;;5090587;28;20381;-66
2023/01/12 04:02:13;;;;;;;27.00;15.82;;;154.50;2252.80;;;;;;5090474;28;20024;-65
2023/01/12 04:04:39;;;;;;;33.92;20.90;;;154.50;2252.80;;;;;;5090233;28;20389;-65
2023/01/12 04:07:05;;;;;;;21.48;13.93;;;154.40;2252.80;;;;;;5090673;28;20030;-66
2023/01/12 04:09:31;;;;;;;22.88;13.35;;;154.30;2252.80;;;;;;5090424;28;20032;-64
2023/01/12 04:12:12;;;;;;;25.77;13.73;;;154.30;2252.80;;;;;;5090460;28;20030;-65
2023/01/12 04:14:39;;;;;;;19.17;10.70;;;154.30;2252.80;;;;;;5090091;28;20083;-65
2023/01/12 04:17:06;;;;;;;17.33;11.00;;;154.40;2252.80;;;;;;5090419;28;20145;-65
2023/01/12 04:19:31;;;;;;;22.75;13.40;;;154.40;2252.80;;;;;;5090276;28;20085;-65
2023/01/12 04:24:41;;;;;;;17.70;11.35;;;154.30;2252.80;;;;;;5090498;28;20078;-66
2023/01/12 04:27:07;;;;;;;15.07;9.05;;;154.10;2252.80;;;;;;5090402;28;20028;-68
2023/01/12 04:29:33;;;;;;;27.02;14.70;;;154.00;2252.80;;;;;;5090299;28;20035;-66
2023/01/12 04:31:58;;;;;;;46.50;28.80;;;153.90;2252.80;;;;;;5089816;28;20024;-67
2023/01/12 04:34:24;;;;;;;46.67;27.58;;;153.80;2252.80;;;;;;5090259;28;20025;-66
2023/01/12 04:36:50;;;;;;;45.13;26.92;;;153.80;2252.80;;;;;;5089803;28;20023;-66
2023/01/12 04:39:15;;;;;;;46.47;34.95;;;154.10;2252.80;;;;;;5089880;28;20040;-66
2023/01/12 04:41:41;;;;;;;55.03;35.35;;;154.20;2252.80;;;;;;5090237;28;20043;-66
2023/01/12 04:44:07;;;;;;;59.28;37.78;;;153.90;2252.80;;;;;;5089946;28;20073;-66
2023/01/12 04:46:32;;;;;;;80.65;46.30;;;153.80;2252.80;;;;;;5089913;28;20051;-65
2023/01/12 04:48:58;;;;;;;70.80;41.55;;;154.00;2252.80;;;;;;5090078;28;20099;-66
2023/01/12 04:51:24;;;;;;;57.88;35.60;;;154.10;2252.80;;;;;;5089909;28;20073;-65
2023/01/12 04:53:50;;;;;;;47.58;30.95;;;154.20;2252.80;;;;;;5089808;28;20020;-65
2023/01/12 04:56:17;;;;;;;53.03;34.15;;;154.20;2252.80;;;;;;5090004;28;20154;-66
2023/01/12 04:58:43;;;;;;;53.55;33.63;;;154.30;2252.80;;;;;;5090077;28;20081;-65
2023/01/12 05:01:10;;;;;;;37.05;27.38;;;154.20;2252.80;;;;;;5090009;28;20484;-64
2023/01/12 05:03:36;;;;;;;47.47;29.65;;;154.20;2252.80;;;;;;5089884;28;20055;-66
2023/01/12 05:06:05;;;;;;;54.78;29.58;;;154.40;2252.80;;;;;;5089811;28;20059;-63
2023/01/12 05:11:15;;;;;;;85.07;56.10;;;154.40;2252.80;;;;;;5090212;28;20031;-66
2023/01/12 05:13:41;;;;;;;86.00;56.53;;;179.20;2252.80;;;;;;5089784;28;20373;-67
2023/01/12 05:16:14;;;;;;;71.43;48.80;;;154.40;2252.80;;;;;;5089752;28;20226;-67
2023/01/12 05:18:40;;;;;;;85.50;54.42;;;179.20;2252.80;;;;;;5089537;28;20386;-67
2023/01/12 05:21:06;;;;;;;68.22;40.45;;;179.20;2252.80;;;;;;5089715;28;20055;-68
2023/01/12 05:23:32;;;;;;;173.63;109.90;;;179.20;2252.80;;;;;;5089604;28;20035;-67
2023/01/12 05:26:02;;;;;;;94.07;60.95;;;154.50;2252.80;;;;;;5089245;28;20040;-66
2023/01/12 05:28:28;;;;;;;84.15;55.17;;;154.40;2252.80;;;;;;5089517;28;20150;-66
2023/01/12 05:31:00;;;;;;;96.60;58.17;;;154.40;2252.80;;;;;;5090447;28;20032;-67
2023/01/12 05:33:26;;;;;;;101.68;64.78;;;154.50;2252.80;;;;;;5093224;28;20020;-65
2023/01/12 05:35:51;;;;;;;91.93;60.28;;;154.40;2252.80;;;;;;5093346;28;20030;-64
2023/01/12 05:38:17;;;;;;;106.47;69.03;;;154.40;2252.80;;;;;;5093209;28;20119;-66
2023/01/12 05:40:42;;;;;;;109.90;69.80;;;154.50;2252.80;;;;;;5092931;28;20032;-65
2023/01/12 05:45:56;;;;;;;66.03;42.70;;;154.40;2252.80;;;;;;5092735;28;20547;-66
2023/01/12 05:48:22;;;;;;;69.95;45.00;;;154.50;2252.80;;;;;;5093063;28;20028;-67
2023/01/12 05:50:47;;;;;;;93.80;64.22;;;179.30;2252.80;;;;;;5092864;28;20031;-65
2023/01/12 05:53:13;;;;;;;93.40;63.88;;;179.30;2252.80;;;;;;5092833;28;20073;-66
2023/01/12 05:55:39;;;;;;;87.63;59.13;;;179.40;2252.80;;;;;;5092738;28;20032;-65
2023/01/12 05:58:05;;;;;;;87.95;57.15;;;179.20;2252.80;;;;;;5093168;28;20099;-64
2023/01/12 06:00:30;;;;;;;82.60;58.17;;;179.30;2252.80;;;;;;5092579;28;20059;-67
2023/01/12 06:02:56;;;;;;;85.82;55.78;;;179.20;2252.80;;;;;;5092819;28;20051;-68
2023/01/12 06:05:22;;;;;;;90.00;58.25;;;179.30;2252.80;;;;;;5091308;28;20040;-68
2023/01/12 06:07:47;;;;;;;133.40;98.20;;;179.30;2252.80;;;;;;5092518;28;20028;-69
2023/01/12 06:10:13;;;;;;;84.53;54.42;;;179.30;2252.80;;;;;;5092593;28;20062;-64
2023/01/12 06:15:23;;;;;;;72.63;46.35;;;154.20;2252.80;;;;;;5092581;28;20522;-63
2023/01/12 06:17:49;;;;;;;63.33;41.63;;;153.90;2252.80;;;;;;5092079;28;20020;-65
2023/01/12 06:20:16;;;;;;;75.63;47.13;;;153.70;2252.80;;;;;;5092610;28;20020;-64
2023/01/12 06:22:43;;;;;;;64.80;43.53;;;153.60;2252.80;;;;;;5091503;28;20530;-67
2023/01/12 06:25:10;;;;;;;48.90;34.22;;;153.60;2252.80;;;;;;5091898;28;20122;-65
2023/01/12 06:27:37;;;;;;;49.22;33.00;;;153.60;2252.80;;;;;;5092364;28;20046;-67
2023/01/12 06:30:07;;;;;;;58.30;38.80;;;153.60;2252.80;;;;;;5092020;28;20039;-65
2023/01/12 06:32:33;;;;;;;63.72;43.78;;;128.90;2252.80;;;;;;5092135;28;20024;-68
2023/01/12 06:34:59;;;;;;;162.57;101.15;;;153.60;2252.80;;;;;;5092040;28;20385;-67
2023/01/12 06:37:25;;;;;;;99.18;65.93;;;153.70;2252.80;;;;;;5091983;28;20094;-66
2023/01/12 06:39:50;;;;;;;51.08;31.38;;;153.80;2252.80;;;;;;5091602;28;20493;-68
2023/01/12 06:42:28;;;;;;;35.28;21.30;;;153.70;2252.80;;;;;;5091036;28;20385;-67
2023/01/12 06:44:59;;;;;;;26.30;16.02;;;154.00;2252.80;;;;;;5091857;28;20046;-66
2023/01/12 06:47:26;;;;;;;31.30;17.67;;;154.00;2252.80;;;;;;5091827;28;20039;-66
2023/01/12 06:49:52;;;;;;;33.58;27.00;;;154.00;2252.80;;;;;;5091702;28;20024;-65
2023/01/12 06:52:20;;;;;;;33.60;23.45;;;153.90;2252.80;;;;;;5091578;28;20028;-67
2023/01/12 06:54:46;;;;;;;56.80;37.80;;;154.10;2252.80;;;;;;5091626;28;20032;-66
2023/01/12 06:57:13;;;;;;;29.67;19.05;;;154.20;2252.80;;;;;;5091466;28;20129;-66
2023/01/12 06:59:40;;;;;;;53.25;34.42;;;154.10;2252.80;;;;;;5091580;28;20053;-66
2023/01/12 07:02:11;;;;;;;60.45;38.08;;;154.10;2252.80;;;;;;5091861;28;20515;-66
2023/01/12 07:04:38;;;;;;;65.82;37.60;;;154.10;2252.80;;;;;;5091471;28;20028;-67
2023/01/12 07:07:03;;;;;;;71.72;46.33;;;154.30;2252.80;;;;;;5091563;28;20450;-66
2023/01/12 07:09:29;;;;;;;61.75;38.83;;;154.30;2252.80;;;;;;5091049;28;20032;-65
2023/01/12 07:11:55;;;;;;;60.65;38.15;;;154.40;2252.80;;;;;;5091362;28;20024;-65
2023/01/12 07:14:20;;;;;;;58.55;38.53;;;154.50;2252.80;;;;;;5091295;28;20137;-65
2023/01/12 07:16:46;;;;;;;63.33;40.55;;;154.50;2252.80;;;;;;5091001;28;20020;-67
2023/01/12 07:19:12;;;;;;;83.47;59.30;;;154.50;2252.80;;;;;;5091483;28;20020;-64
2023/01/12 07:21:38;;;;;;;93.57;68.05;;;154.40;2252.80;;;;;;5091089;28;20021;-64
2023/01/12 07:24:03;;;;;;;77.95;52.92;;;179.20;2252.80;;;;;;5091171;28;20122;-63
2023/01/12 07:26:29;;;;;;;54.50;36.67;;;179.30;2252.80;;;;;;5090700;28;20109;-64
2023/01/12 07:28:55;;;;;;;40.40;25.60;;;179.30;2252.80;;;;;;5090913;28;20027;-62
2023/01/12 07:31:21;;;;;;;62.92;40.22;;;154.50;2252.80;;;;;;5090437;28;20120;-64
2023/01/12 07:33:46;;;;;;;50.50;32.05;;;154.50;2252.80;;;;;;5090215;28;20020;-67
2023/01/12 07:36:12;;;;;;;48.50;31.70;;;154.50;2252.80;;;;;;5090986;28;20317;-63
2023/01/12 07:38:38;;;;;;;57.17;39.67;;;154.40;2252.80;;;;;;5090715;28;20016;-65
2023/01/12 07:41:04;;;;;;;55.97;36.63;;;179.20;2252.80;;;;;;5090814;28;20064;-57
2023/01/12 07:43:32;;;;;;;59.85;40.25;;;179.30;2252.80;;;;;;5090470;28;20458;-58
2023/01/12 07:45:58;;;;;;;62.90;40.42;;;179.40;2252.80;;;;;;5090435;28;20393;-58
2023/01/12 07:48:26;;;;;;;49.90;30.25;;;179.40;2252.80;;;;;;5091007;28;20020;-58
2023/01/12 07:50:52;;;;;;;37.80;24.08;;;179.40;2252.80;;;;;;5090840;28;20073;-59
2023/01/12 07:53:19;;;;;;;31.33;19.33;;;179.50;2252.80;;;;;;5090203;28;20028;-58
2023/01/12 07:55:44;;;;;;;25.83;15.57;;;179.50;2252.80;;;;;;5090722;28;20020;-58
2023/01/12 07:58:10;;;;;;;27.52;19.00;;;179.50;2252.80;;;;;;5090343;28;20392;-60
2023/01/12 08:00:36;;;;;;;25.67;15.35;;;179.50;2252.80;;;;;;5090659;28;20071;-58
2023/01/12 08:03:08;;;;;;;28.15;15.82;;;179.70;2252.80;;;;;;5090818;28;20493;-58
2023/01/12 08:05:35;;;;;;;37.10;22.33;;;179.70;2252.80;;;;;;5090487;28;20036;-58
2023/01/12 08:08:01;;;;;;;24.50;17.20;;;179.60;2252.80;;;;;;5090663;28;20024;-59
2023/01/12 08:10:27;;;;;;;24.73;16.10;;;179.60;2252.80;;;;;;5090148;28;20058;-58
2023/01/12 08:12:53;;;;;;;26.67;16.67;;;179.70;2252.80;;;;;;5090231;28;20024;-58
2023/01/12 08:15:19;;;;;;;30.98;19.15;;;179.70;2252.80;;;;;;5090172;28;20019;-57
2023/01/12 08:17:51;;;;;;;35.05;21.10;;;179.60;2252.80;;;;;;5090655;28;20424;-58
2023/01/12 08:20:21;;;;;;;24.60;15.93;;;179.50;2252.80;;;;;;5090217;28;20016;-58
2023/01/12 08:22:50;;;;;;;32.35;20.30;;;179.40;2252.80;;;;;;5090073;28;20062;-58
2023/01/12 08:25:25;;;;;;;29.67;19.75;;;179.60;2252.80;;;;;;5089890;28;20132;-59
2023/01/12 08:27:53;;;;;;;45.72;25.83;;;179.40;2252.80;;;;;;5089924;28;20402;-58
2023/01/12 08:30:22;;;;;;;31.58;19.40;;;179.40;2252.80;;;;;;5090425;28;20028;-58
2023/01/12 08:32:48;;;;;;;35.55;21.65;;;179.50;2252.80;;;;;;5090035;28;20033;-57
2023/01/12 08:35:19;;;;;;;53.83;32.13;;;179.50;2252.80;;;;;;5090283;28;20028;-58
2023/01/12 08:37:45;;;;;;;59.28;36.40;;;179.70;2252.80;;;;;;5090152;28;20025;-58
2023/01/12 08:40:12;;;;;;;43.17;26.30;;;179.50;2252.80;;;;;;5089666;28;20470;-59
2023/01/12 08:42:38;;;;;;;54.42;36.95;;;179.70;2252.80;;;;;;5089724;28;20035;-58
2023/01/12 08:45:07;;;;;;;31.73;22.35;;;179.50;2252.80;;;;;;5089853;28;20032;-59
2023/01/12 08:47:33;;;;;;;26.35;18.63;;;179.60;2252.80;;;;;;5090082;28;20048;-58
2023/01/12 08:50:00;;;;;;;31.38;21.17;;;179.50;2252.80;;;;;;5089794;28;20543;-59
2023/01/12 08:52:31;;;;;;;50.33;36.10;;;179.60;2252.80;;;;;;5090290;28;20550;-59
2023/01/12 08:54:57;;;;;;;44.28;31.73;;;179.50;2252.80;;;;;;5089762;28;20031;-58
2023/01/12 08:57:23;;;;;;;29.35;18.88;;;179.60;2252.80;;;;;;5089863;28;20408;-58
2023/01/12 08:59:49;;;;;;;27.75;20.35;;;179.70;2252.80;;;;;;5089800;28;20397;-63
2023/01/12 09:02:15;;;;;;;34.55;21.13;;;179.60;2252.80;;;;;;5090021;28;20047;-60
2023/01/12 09:04:41;;;;;;;39.58;31.15;;;179.70;2252.80;;;;;;5089739;28;20042;-57
2023/01/12 09:07:08;;;;;;;31.52;20.10;;;179.80;2252.80;;;;;;5092100;28;20107;-58
2023/01/12 09:09:34;;;;;;;39.55;29.73;;;179.80;2252.80;;;;;;5093097;28;20482;-57
2023/01/12 09:12:00;;;;;;;44.35;29.88;;;179.70;2252.80;;;;;;5093498;28;20063;-57
2023/01/12 09:14:26;;;;;;;29.67;20.20;;;179.70;2252.80;;;;;;5093443;28;20034;-58
2023/01/12 09:16:52;;;;;;;26.73;18.75;;;179.80;2252.80;;;;;;5093325;28;20023;-58
2023/01/12 09:19:18;;;;;;;32.05;23.02;;;179.80;2252.80;;;;;;5093494;28;20025;-60
2023/01/12 09:21:44;;;;;;;68.97;46.15;;;179.90;2252.80;;;;;;5093052;28;20382;-59
2023/01/12 09:24:11;;;;;;;42.75;29.00;;;180.10;2252.80;;;;;;5093168;28;20024;-59
2023/01/12 09:26:40;;;;;;;29.25;18.08;;;180.10;2252.80;;;;;;5092736;28;20095;-58
2023/01/12 09:29:06;;;;;;;29.83;19.98;;;204.80;2252.80;;;;;;5093539;28;20486;-60
2023/01/12 09:31:33;;;;;;;35.85;23.20;;;;;;;;;;5093050;28;20158;-60
2023/01/12 09:33:59;;;;;;;43.67;30.52;;;205.00;2252.80;;;;;;5093113;28;20031;-59
2023/01/12 09:36:31;;;;;;;36.78;22.38;;;204.80;2252.80;;;;;;5093307;28;20039;-59
2023/01/12 09:38:57;;;;;;;40.45;26.15;;;204.90;2252.80;;;;;;5092907;28;20501;-59
2023/01/12 09:46:58;;;;;;;51.80;34.28;;;;;;;;;;5092841;28;20075;-59
2023/01/12 09:49:26;;;;;;;101.13;60.22;;;;;;;;;;5093272;28;20035;-61
2023/01/12 09:52:01;;;;;;;100.10;65.68;;;;;;;;;;5093076;28;20221;-60
2023/01/12 09:54:27;;;;;;;104.80;61.88;;;;;;;;;;5092779;28;20055;-59
2023/01/12 09:57:08;;;;;;;158.70;92.60;;;;;;;;;;5092941;28;20028;-61
2023/01/12 09:59:49;;;;;;;115.90;72.05;;;;;;;;;;5093005;28;20050;-60
2023/01/12 10:02:16;;;;;;;57.35;38.95;;;;;;;;;;5093263;28;20030;-59
2023/01/12 10:04:42;;;;;;;58.40;38.88;;;205.70;2252.80;;;;;;5092635;28;20036;-60
2023/01/12 10:07:14;;;;;;;163.57;111.65;;;230.40;2252.80;;;;;;5092690;28;20031;-59
2023/01/12 10:09:41;;;;;;;97.90;66.07;;;230.50;2252.80;;;;;;5092540;28;20028;-58
2023/01/12 10:12:43;;;;;;;55.35;32.63;;;230.60;2252.80;;;;;;5092655;28;20032;-59
2023/01/12 10:15:30;;;;;;;64.30;40.08;;;230.60;2252.80;;;;;;5010417;28;20500;-58
2023/01/12 10:18:14;;;;;;;20.52;14.02;;;230.60;2252.80;;;;;;5010266;28;20104;-60
2023/01/12 10:20:43;;;;;;;27.08;14.10;;;230.60;2252.80;;;;;;5010145;28;20026;-59
2023/01/12 10:23:14;;;;;;;142.70;92.43;;;230.70;2252.80;;;;;;5010196;28;20026;-59
2023/01/12 10:25:44;;;;;;;123.25;85.90;;;230.70;2252.80;;;;;;5009948;28;20068;-59
2023/01/12 10:28:16;;;;;;;62.40;53.30;;;230.90;2252.80;;;;;;5010014;28;20026;-59
2023/01/12 10:30:43;;;;;;;51.15;37.72;;;231.20;2252.80;;;;;;5009966;28;20026;-60
2023/01/12 10:33:17;;;;;;;82.20;59.47;;;231.10;2252.80;;;;;;5009938;28;20145;-60
2023/01/12 10:35:53;;;;;;;32.10;22.60;;;231.00;2252.80;;;;;;5009996;28;20030;-60
2023/01/12 10:38:28;;;;;;;53.58;34.58;;;231.30;2252.80;;;;;;5009952;28;20042;-61
2023/01/12 10:41:05;;;;;;;49.75;31.52;;;231.20;2252.80;;;;;;5009890;28;20053;-61
2023/01/12 10:43:32;;;;;;;58.38;34.88;;;231.20;2252.80;;;;;;5009745;28;20033;-61
2023/01/12 10:46:31;;;;;;;46.00;27.35;;;231.10;2252.80;;;;;;5009523;28;20069;-60
2023/01/12 10:49:15;;;;;;;54.35;39.33;;;231.30;2252.80;;;;;;4931635;29;20449;-59
2023/01/12 10:51:49;;;;;;;45.70;29.83;;;231.30;2252.80;;;;;;4975610;28;20076;-58
2023/01/12 10:54:18;;;;;;;51.60;34.75;;;231.30;2252.80;;;;;;5008122;28;20037;-59
2023/01/12 10:56:59;;;;;;;33.72;21.13;;;231.30;2252.80;;;;;;5008106;28;20104;-60
2023/01/12 10:59:32;;;;;;;25.50;14.75;;;256.10;2252.80;;;;;;5006480;28;20515;-61
2023/01/12 11:02:01;;;;;;;21.45;14.80;;;256.20;2252.80;;;;;;5009219;28;20523;-59
2023/01/12 11:04:28;;;;;;;22.73;13.68;;;;;;;;;;5008858;28;20476;-60
2023/01/12 11:07:00;;;;;;;19.67;12.23;;;;;;;;;;5008665;28;20046;-59
2023/01/12 11:09:28;;;;;;;18.90;10.82;;;;;;;;;;5007813;28;20030;-61
2023/01/12 11:11:58;;;;;;;20.23;14.32;;;;;;;;;;5009018;28;20082;-58
2023/01/12 11:14:32;;;;;;;24.15;13.50;;;;;;;;;;5007407;28;20101;-58
2023/01/12 11:17:03;;;;;;;24.02;13.65;;;;;;;;;;5006397;28;20112;-58
2023/01/12 11:19:30;;;;;;;24.05;14.13;;;;;;;;;;5004490;28;20049;-59
2023/01/12 11:22:03;;;;;;;42.88;28.42;;;256.30;2252.80;;;;;;5006632;28;20034;-58
2023/01/12 11:24:56;;;;;;;50.30;33.70;;;256.20;2252.80;;;;;;5016537;28;20031;-57
2023/01/12 11:27:34;;;;;;;61.85;45.63;;;256.10;2252.80;;;;;;5083180;28;20542;-58
2023/01/12 11:30:20;;;;;;;92.40;61.85;;;231.10;2252.80;;;;;;5088134;28;20067;-58
2023/01/12 11:33:03;;;;;;;70.75;43.75;;;231.20;2252.80;;;;;;5006501;28;20040;-58
2023/01/12 11:35:38;;;;;;;83.13;54.25;;;231.30;2252.80;;;;;;5005383;28;20030;-58
2023/01/12 11:38:29;;;;;;;103.38;60.63;;;231.20;2252.80;;;;;;5005862;28;20595;-58
2023/01/12 11:40:57;;;;;;;80.32;54.60;;;231.20;2252.80;;;;;;5004330;28;20037;-57
2023/01/12 11:43:51;;;;;;;48.40;34.47;;;256.10;2252.80;;;;;;5005990;28;20064;-59
2023/01/12 11:46:27;;;;;;;54.75;36.35;;;256.00;2252.80;;;;;;5004155;28;20046;-58
2023/01/12 11:49:23;;;;;;;56.03;38.88;;;256.20;2252.80;;;;;;5005428;28;20531;-58
2023/01/12 11:51:56;;;;;;;55.67;39.00;;;256.20;2252.80;;;;;;5005061;28;20058;-58
2023/01/12 11:54:26;;;;;;;59.28;39.15;;;256.10;2252.80;;;;;;5003947;28;20022;-58
2023/01/12 11:56:57;;;;;;;120.90;94.55;;;256.20;2252.80;;;;;;5005044;28;20034;-58
2023/01/12 11:59:28;;;;;;;72.25;51.05;;;256.10;2252.80;;;;;;4989098;28;20042;-57
2023/01/12 12:02:25;;;;;;;67.40;47.60;;;256.30;2252.80;;;;;;5005668;28;20018;-57
2023/01/12 12:05:40;;;;;;;47.70;34.28;;;256.20;2252.80;;;;;;5004670;28;20041;-58
2023/01/12 12:08:35;;;;;;;47.30;32.90;;;256.20;2252.80;;;;;;4879652;29;20059;-57
2023/01/12 12:11:15;;;;;;;63.33;37.42;;;256.30;2252.80;;;;;;4918989;29;20047;-58
2023/01/12 12:13:50;;;;;;;40.80;27.95;;;256.30;2252.80;;;;;;4947185;29;20437;-58
2023/01/12 12:16:35;;;;;;;54.95;37.33;;;256.20;2252.80;;;;;;4948397;29;20022;-58
2023/01/12 12:19:19;;;;;;;27.83;19.60;;;256.20;2252.80;;;;;;4946208;29;20216;-57
2023/01/12 12:21:55;;;;;;;28.77;20.45;;;256.00;2252.80;;;;;;4947158;29;20054;-56
2023/01/12 12:24:41;;;;;;;40.83;28.63;;;256.20;2252.80;;;;;;4945880;29;20046;-59
2023/01/12 12:27:12;;;;;;;32.00;22.73;;;256.40;2252.80;;;;;;4947431;29;20015;-58
2023/01/12 12:29:38;;;;;;;31.98;23.00;;;256.50;2252.80;;;;;;4947422;29;20137;-59
2023/01/12 12:32:09;;;;;;;53.15;37.63;;;256.50;2252.80;;;;;;4947237;29;20024;-56
2023/01/12 12:34:44;;;;;;;58.85;42.10;;;256.40;2252.80;;;;;;4947323;29;20089;-59
2023/01/12 12:37:39;;;;;;;43.50;30.73;;;256.50;2252.80;;;;;;4947162;29;20051;-59
2023/01/12 12:46:36;;;;;;;57.63;31.30;;;256.50;2252.80;;;;;;5051393;28;20098;-58
2023/01/12 12:49:11;;;;;;;42.72;22.33;;;256.50;2252.80;;;;;;5051756;28;20378;-60
2023/01/12 12:51:38;;;;;;;50.95;34.53;;;256.50;2252.80;;;;;;5051662;28;20044;-58
2023/01/12 12:54:16;;;;;;;53.63;36.30;;;256.20;2252.80;;;;;;5051856;28;20044;-60
2023/01/12 12:56:42;;;;;;;60.15;38.70;;;256.20;2252.80;;;;;;5051771;28;20393;-59
2023/01/12 12:59:30;;;;;;;455.77;293.73;;;256.20;2252.80;;;;;;5051573;28;20033;-62